Reynosa, TAM, Mexico
Current Conditions -  °F | °C
As of 7:41 AM on Thursday 30 Oct 2014 (Local Time) from MMRX Reporting Station
Clear Clear  
Wind Chill: 70°   Ceiling: Unl
Heat Index: 70°   Visibility: 6mi
Dew Point: 66°   Wind: 0mph
Humidity: 88%   Direction: NA
Pressure: 30.08"   Gusts: NA
Location:  26.08°N, 98.28°W
Report Text: MMRX 301341Z 00000KT 6SM SKC 21/19 A3008 RMK HZ FU
Loading
Personal Weather Stations






























Interactive Weather Map
Tropical Storm Tracking
New forecast layout! Learn more

10-Day Weather Forecast

Advertisements
Track Severe Weather on mobile